Time;durP1;ratioP1;P1;durP2;ratioP2;P2;SDS_P1;SDS_P2;PMS_P1;PMS_P2;Temp;Humidity;BMP_temperature;BMP_pressure;BME280_temperature;BME280_humidity;BME280_pressure;Samples;Min_cycle;Max_cycle;Signal;HPM_P1;HPM_P2
2023/02/15 00:00:14;;;;;;;2.60;2.40;;;;;;;1.18;70.50;100592.59;105122;1260;66746;-69
2023/02/15 00:02:43;;;;;;;2.90;1.90;;;;;;;1.17;70.68;100599.58;105174;1260;74450;-70
2023/02/15 00:05:11;;;;;;;3.50;3.00;;;;;;;1.15;70.63;100599.08;105139;1258;61197;-68
2023/02/15 00:07:40;;;;;;;3.50;2.60;;;;;;;1.17;70.93;100598.79;105270;1260;61848;-68
2023/02/15 00:10:09;;;;;;;5.50;2.80;;;;;;;1.18;71.14;100597.70;105026;1257;75024;-69
2023/02/15 00:12:38;;;;;;;6.60;4.50;;;;;;;1.22;71.03;100600.41;105768;1257;67957;-69
2023/02/15 00:15:07;;;;;;;5.20;3.80;;;;;;;1.27;71.05;100603.64;105046;1256;74305;-68
2023/02/15 00:17:35;;;;;;;6.10;3.30;;;;;;;1.31;70.73;100604.57;105144;1260;60459;-68
2023/02/15 00:20:05;;;;;;;5.70;3.40;;;;;;;1.34;70.63;100600.08;105884;1258;60822;-70
2023/02/15 00:22:34;;;;;;;5.30;4.40;;;;;;;1.35;70.45;100598.83;105354;1257;73686;-69
2023/02/15 00:25:02;;;;;;;7.20;5.30;;;;;;;1.37;70.40;100598.20;105371;1260;67017;-68
2023/02/15 00:27:32;;;;;;;6.60;5.40;;;;;;;1.36;70.06;100595.42;105206;1260;72825;-70
2023/02/15 00:30:06;;;;;;;4.90;3.60;;;;;;;1.33;69.90;100597.11;105749;1263;60526;-69
2023/02/15 00:32:34;;;;;;;6.10;4.10;;;;;;;1.31;69.82;100594.56;104994;1260;60575;-70
2023/02/15 00:35:02;;;;;;;6.00;4.80;;;;;;;1.30;69.81;100601.39;105363;1261;72595;-70
2023/02/15 00:37:31;;;;;;;6.50;4.40;;;;;;;1.28;69.56;100597.89;104990;1261;67926;-67
2023/02/15 00:39:59;;;;;;;9.90;4.10;;;;;;;1.27;69.60;100603.78;105209;1260;73073;-75
2023/02/15 00:42:28;;;;;;;3.70;2.80;;;;;;;1.27;69.40;100600.46;105824;1256;60877;-71
2023/02/15 00:44:56;;;;;;;3.40;3.10;;;;;;;1.26;69.07;100607.58;105751;1260;60473;-70
2023/02/15 00:47:25;;;;;;;4.40;2.40;;;;;;;1.26;69.19;100608.02;105765;1260;74294;-71
2023/02/15 00:49:53;;;;;;;4.10;2.10;;;;;;;1.24;68.89;100609.81;105282;1257;69423;-68
2023/02/15 00:52:22;;;;;;;4.30;2.70;;;;;;;1.23;68.89;100610.58;105392;1258;72460;-72
2023/02/15 00:54:50;;;;;;;4.00;2.70;;;;;;;1.23;68.74;100608.46;105292;1260;60567;-70
2023/02/15 00:57:18;;;;;;;3.40;2.10;;;;;;;1.23;68.69;100613.83;105326;1257;60476;-69
2023/02/15 00:59:49;;;;;;;2.30;2.10;;;;;;;1.22;68.67;100612.46;105327;1259;73753;-67
2023/02/15 01:02:18;;;;;;;2.50;1.80;;;;;;;1.22;68.48;100613.73;105385;1257;69030;-69
2023/02/15 01:04:48;;;;;;;3.20;2.10;;;;;;;1.22;68.58;100610.94;105185;1260;73646;-68
2023/02/15 01:07:16;;;;;;;2.80;2.60;;;;;;;1.21;68.46;100614.67;105275;1259;60479;-69
2023/02/15 01:09:44;;;;;;;1.80;1.70;;;;;;;1.21;68.30;100615.73;105324;1257;61549;-72
2023/02/15 01:12:13;;;;;;;3.10;1.80;;;;;;;1.20;68.23;100615.67;105692;1263;74177;-67
2023/02/15 01:14:41;;;;;;;2.10;1.80;;;;;;;1.20;68.32;100616.73;105307;1261;68346;-69
2023/02/15 01:17:09;;;;;;;2.70;1.90;;;;;;;1.20;68.28;100622.35;105330;1261;74166;-69
2023/02/15 01:19:38;;;;;;;1.90;1.70;;;;;;;1.20;68.35;100625.05;105435;1260;60467;-69
2023/02/15 01:22:07;;;;;;;1.80;1.70;;;;;;;1.19;68.20;100620.77;105011;1260;62143;-71
2023/02/15 01:24:36;;;;;;;1.60;1.50;;;;;;;1.17;68.26;100622.53;105605;1258;73545;-70
2023/02/15 01:27:04;;;;;;;1.90;1.80;;;;;;;1.18;68.36;100627.43;105549;1257;69764;-73
2023/02/15 01:29:32;;;;;;;3.50;1.70;;;;;;;1.18;68.45;100621.91;105781;1261;72665;-72
2023/02/15 01:32:01;;;;;;;2.50;1.70;;;;;;;1.19;67.90;100618.86;105503;1257;60436;-72
2023/02/15 01:34:30;;;;;;;3.00;2.30;;;;;;;1.18;67.65;100616.95;105622;1257;60455;-69
2023/02/15 01:36:58;;;;;;;2.50;2.30;;;;;;;1.17;67.33;100619.74;105502;1260;72976;-77
2023/02/15 01:39:26;;;;;;;4.00;2.60;;;;;;;1.16;67.55;100617.59;105751;1257;68138;-77
2023/02/15 01:41:57;;;;;;;4.40;2.70;;;;;;;1.15;67.63;100618.77;103501;1259;1003481;-75
2023/02/15 01:44:51;;;;;;;2.20;2.00;;;;;;;1.15;67.77;100615.88;105705;1257;60551;-76
2023/02/15 01:47:31;;;;;;;4.40;3.30;;;;;;;1.17;67.74;100619.75;105691;1260;60469;-74
2023/02/15 01:50:13;;;;;;;2.10;1.80;;;;;;;1.18;67.93;100619.48;103487;1262;1004161;-70
2023/02/15 01:52:49;;;;;;;2.10;1.80;;;;;;;1.16;67.59;100620.67;105712;1260;66936;-74
2023/02/15 01:55:17;;;;;;;3.00;1.90;;;;;;;1.16;67.57;100623.05;105482;1257;71985;-72
2023/02/15 01:57:45;;;;;;;1.50;1.40;;;;;;;1.17;67.51;100619.95;105704;1259;60391;-72
2023/02/15 02:00:16;;;;;;;3.30;2.10;;;;;;;1.16;67.29;100618.23;105654;1256;60562;-75
2023/02/15 02:02:49;;;;;;;3.10;2.10;;;;;;;1.17;67.36;100621.56;105459;1259;74888;-73
2023/02/15 02:05:18;;;;;;;1.90;1.70;;;;;;;1.16;67.18;100624.41;105587;1257;68090;-76
2023/02/15 02:07:46;;;;;;;4.30;2.90;;;;;;;1.15;66.92;100626.55;105726;1256;73941;-74
2023/02/15 02:10:17;;;;;;;4.00;2.60;;;;;;;1.14;67.02;100624.50;106084;1259;61366;-76
2023/02/15 02:12:46;;;;;;;7.30;1.90;;;;;;;1.14;66.60;100628.93;105422;1258;61725;-77
2023/02/15 02:15:15;;;;;;;2.40;2.10;;;;;;;1.13;66.17;100629.79;105671;1257;73408;-75
2023/02/15 02:18:03;;;;;;;2.80;2.00;;;;;;;1.13;66.17;100629.73;105714;1260;68310;-73
2023/02/15 02:20:47;;;;;;;2.30;2.00;;;;;;;1.13;65.41;100630.45;105851;1257;73065;-73
2023/02/15 02:23:27;;;;;;;2.30;2.10;;;;;;;1.13;65.36;100624.79;105547;1257;61214;-71
2023/02/15 02:26:33;;;;;;;2.80;2.00;;;;;;;1.15;65.28;100622.30;105734;1257;60434;-71
2023/02/15 02:29:07;;;;;;;2.30;2.10;;;;;;;1.14;65.31;100633.11;105780;1261;73203;-71
2023/02/15 02:31:44;;;;;;;1.90;1.80;;;;;;;1.16;65.30;100629.79;105437;1257;66816;-73
2023/02/15 02:34:26;;;;;;;1.80;1.70;;;;;;;1.18;65.21;100629.76;105710;1262;73275;-72
2023/02/15 02:37:16;;;;;;;1.60;1.50;;;;;;;1.18;65.30;100632.17;105537;1264;60463;-73
2023/02/15 02:40:04;;;;;;;2.20;1.30;;;;;;;1.19;65.00;100635.46;105669;1258;61320;-71
2023/02/15 02:42:40;;;;;;;1.50;1.30;;;;;;;1.19;65.20;100635.23;105727;1260;73816;-72
2023/02/15 02:45:09;;;;;;;2.00;1.70;;;;;;;1.18;65.37;100633.60;105725;1256;68571;-72
2023/02/15 02:48:05;;;;;;;1.60;1.50;;;;;;;1.17;65.27;100633.33;105740;1257;73375;-72
2023/02/15 02:50:35;;;;;;;2.50;1.90;;;;;;;1.14;65.50;100639.73;105739;1261;60454;-72
2023/02/15 02:53:03;;;;;;;2.20;2.00;;;;;;;1.13;65.43;100643.03;105782;1256;61223;-71
2023/02/15 02:55:56;;;;;;;2.30;2.10;;;;;;;1.11;65.34;100646.58;105711;1257;75118;-72
2023/02/15 02:58:44;;;;;;;2.20;2.00;;;;;;;1.10;64.88;100649.09;105659;1260;67082;-71
2023/02/15 03:01:19;;;;;;;2.80;2.30;;;;;;;1.10;64.54;100656.74;105803;1257;72213;-70
2023/02/15 03:03:52;;;;;;;3.50;2.40;;;;;;;1.08;64.06;100658.89;105677;1256;60385;-72
2023/02/15 03:06:27;;;;;;;2.50;1.70;;;;;;;1.07;64.02;100654.02;105411;1257;60400;-73
2023/02/15 03:09:14;;;;;;;1.90;1.80;;;;;;;1.05;63.10;100649.39;105540;1262;75382;-71
2023/02/15 03:11:43;;;;;;;3.20;2.30;;;;;;;1.03;63.16;100655.38;105583;1257;68962;-71
2023/02/15 03:14:13;;;;;;;3.40;2.60;;;;;;;1.05;63.52;100657.15;105443;1262;71980;-72
2023/02/15 03:16:41;;;;;;;6.70;4.10;;;;;;;1.06;63.69;100655.61;105731;1256;60446;-73
2023/02/15 03:19:33;;;;;;;14.90;7.60;;;;;;;1.06;63.83;100661.40;105440;1257;61298;-72
2023/02/15 03:22:10;;;;;;;12.10;6.40;;;;;;;1.06;63.98;100659.15;105497;1257;75138;-73
2023/02/15 03:24:43;;;;;;;16.90;8.80;;;;;;;1.06;64.12;100657.40;105506;1260;68252;-72
2023/02/15 03:27:17;;;;;;;15.50;7.60;;;;;;;1.06;64.27;100658.95;105533;1257;72561;-71
2023/02/15 03:29:46;;;;;;;13.50;7.40;;;;;;;1.04;64.13;100660.18;105079;1259;60398;-71
2023/02/15 03:32:15;;;;;;;9.30;5.60;;;;;;;1.03;64.29;100660.09;105045;1257;60898;-73
2023/02/15 03:34:43;;;;;;;4.90;3.60;;;;;;;1.02;64.25;100657.39;105529;1257;72919;-72
2023/02/15 03:37:38;;;;;;;2.60;2.10;;;;;;;1.01;63.90;100659.30;105349;1256;67733;-73
2023/02/15 03:43:33;;;;;;;2.70;1.90;;;;;;;0.97;63.24;100656.23;105017;1265;60552;-70
2023/02/15 03:46:27;;;;;;;2.00;1.60;;;;;;;0.97;63.46;100660.95;105577;1260;60456;-71
2023/02/15 03:48:58;;;;;;;3.30;2.50;;;;;;;0.96;63.34;100667.63;105503;1256;75668;-72
2023/02/15 03:51:34;;;;;;;3.00;2.30;;;;;;;0.93;63.65;100664.77;105656;1260;67782;-71
2023/02/15 03:54:13;;;;;;;2.90;2.20;;;;;;;0.93;63.80;100665.79;105621;1260;74092;-72
2023/02/15 03:56:41;;;;;;;4.80;2.70;;;;;;;0.94;63.60;100666.73;105455;1258;60493;-71
2023/02/15 04:02:10;;;;;;;6.00;3.90;;;;;;;0.95;63.83;100671.08;105798;1256;73391;-72
2023/02/15 04:04:41;;;;;;;4.40;3.30;;;;;;;0.94;63.63;100674.93;105700;1257;68735;-71
2023/02/15 04:07:09;;;;;;;2.00;1.80;;;;;;;0.91;63.42;100667.59;105598;1257;72109;-72
2023/02/15 04:12:26;;;;;;;3.50;2.70;;;;;;;0.91;63.18;100684.11;105694;1257;62540;-71
2023/02/15 04:17:43;;;;;;;2.60;2.30;;;;;;;0.91;62.97;100683.30;105738;1257;68363;-71
2023/02/15 04:25:46;;;;;;;2.10;2.00;;;;;;;0.93;61.97;100685.98;105800;1256;60460;-73
2023/02/15 04:28:16;;;;;;;4.40;1.70;;;;;;;0.92;62.21;100690.48;105780;1259;73702;-73
2023/02/15 04:30:44;;;;;;;2.80;2.60;;;;;;;0.92;62.19;100692.04;105481;1260;67644;-71
2023/02/15 04:33:13;;;;;;;4.50;2.00;;;;;;;0.91;62.20;100688.60;105643;1257;73520;-72
2023/02/15 04:35:42;;;;;;;2.60;2.10;;;;;;;0.91;62.60;100683.74;105650;1259;60489;-70
2023/02/15 04:38:11;;;;;;;5.80;2.60;;;;;;;0.89;62.71;100684.05;105680;1260;60858;-70
2023/02/15 04:40:40;;;;;;;3.50;2.40;;;;;;;0.88;63.14;100692.07;105634;1258;73576;-69
2023/02/15 04:43:09;;;;;;;3.80;2.70;;;;;;;0.88;63.52;100697.17;105169;1256;67561;-71
2023/02/15 04:45:37;;;;;;;3.20;2.80;;;;;;;0.90;63.65;100695.66;103446;1257;3068618;-70
2023/02/15 04:48:05;;;;;;;6.20;2.60;;;;;;;0.89;63.81;100693.10;105829;1260;60380;-70
2023/02/15 04:50:34;;;;;;;3.70;2.50;;;;;;;0.89;63.87;100695.55;105814;1257;61391;-70
2023/02/15 04:53:02;;;;;;;1.80;1.50;;;;;;;0.88;64.12;100691.05;105449;1259;75599;-70
2023/02/15 04:55:30;;;;;;;3.50;1.90;;;;;;;0.87;63.98;100693.05;105491;1256;67471;-67
2023/02/15 04:57:58;;;;;;;4.20;2.00;;;;;;;0.87;64.21;100691.50;105483;1257;73820;-71
2023/02/15 05:00:27;;;;;;;1.80;1.70;;;;;;;0.86;64.24;100695.48;105740;1260;60552;-69
2023/02/15 05:02:55;;;;;;;2.70;2.30;;;;;;;0.85;64.34;100697.34;105602;1258;60520;-70
2023/02/15 05:05:24;;;;;;;2.10;1.90;;;;;;;0.84;64.39;100706.84;105852;1260;75059;-72
2023/02/15 05:07:52;;;;;;;2.50;1.90;;;;;;;0.83;64.53;100711.33;105488;1257;68892;-70
2023/02/15 05:10:21;;;;;;;8.30;1.90;;;;;;;0.83;64.49;100716.68;105217;1257;72657;-71
2023/02/15 05:12:50;;;;;;;4.30;2.30;;;;;;;0.81;64.31;100720.20;105351;1257;60565;-68
2023/02/15 05:15:20;;;;;;;3.20;1.90;;;;;;;0.79;64.12;100718.70;105323;1260;60463;-69
2023/02/15 05:17:49;;;;;;;2.80;2.20;;;;;;;0.78;64.30;100722.86;105527;1259;75318;-73
2023/02/15 05:20:18;;;;;;;4.80;3.10;;;;;;;0.78;64.29;100725.31;105337;1257;69075;-70
2023/02/15 05:22:47;;;;;;;2.40;2.20;;;;;;;0.77;64.44;100723.62;105712;1256;73660;-71
2023/02/15 05:28:20;;;;;;;4.30;2.40;;;;;;;0.78;65.06;100723.56;104631;1256;1003741;-68
2023/02/15 05:30:59;;;;;;;5.20;3.80;;;;;;;0.76;65.66;100723.03;105721;1259;74535;-70
2023/02/15 05:33:31;;;;;;;3.80;2.60;;;;;;;0.74;65.97;100732.64;105513;1259;67611;-71
2023/02/15 05:35:59;;;;;;;3.70;2.90;;;;;;;0.72;66.63;100730.17;105656;1257;72753;-71
2023/02/15 05:38:30;;;;;;;6.70;4.60;;;;;;;0.70;66.61;100735.65;105657;1257;60751;-71
2023/02/15 05:40:58;;;;;;;8.50;4.90;;;;;;;0.69;66.81;100740.77;105770;1256;61988;-70
2023/02/15 05:43:27;;;;;;;6.20;4.70;;;;;;;0.67;66.95;100740.89;105737;1256;73465;-70
2023/02/15 05:45:55;;;;;;;6.50;3.50;;;;;;;0.66;66.93;100744.95;105517;1256;68129;-70
2023/02/15 05:48:24;;;;;;;5.10;3.10;;;;;;;0.62;66.82;100748.77;105514;1259;74410;-71
2023/02/15 05:51:02;;;;;;;4.20;2.40;;;;;;;0.61;66.86;100748.16;105136;1256;60563;-69
2023/02/15 05:53:33;;;;;;;7.50;3.70;;;;;;;0.61;66.93;100749.55;105750;1256;60450;-71
2023/02/15 05:56:02;;;;;;;6.00;3.20;;;;;;;0.62;66.56;100748.05;105860;1256;73781;-69
2023/02/15 05:58:33;;;;;;;6.70;3.10;;;;;;;0.63;66.26;100751.63;105865;1260;68242;-70
2023/02/15 06:01:14;;;;;;;5.30;3.60;;;;;;;0.63;66.05;100758.31;105736;1258;73453;-72
2023/02/15 06:03:42;;;;;;;4.20;2.50;;;;;;;0.65;65.90;100756.52;105667;1262;60553;-70
2023/02/15 06:06:11;;;;;;;8.40;2.90;;;;;;;0.65;65.94;100764.79;105575;1256;60464;-69
2023/02/15 06:08:39;;;;;;;4.80;3.10;;;;;;;0.63;65.73;100758.28;105362;1256;73271;-69
2023/02/15 06:11:07;;;;;;;7.90;4.30;;;;;;;0.64;65.88;100758.58;105310;1256;67617;-69
2023/02/15 06:13:35;;;;;;;3.60;3.00;;;;;;;0.65;65.79;100760.55;105490;1261;72861;-69
2023/02/15 06:16:06;;;;;;;3.20;2.90;;;;;;;0.66;65.67;100758.71;105202;1262;60485;-70
2023/02/15 06:18:34;;;;;;;2.30;2.10;;;;;;;0.68;65.50;100762.57;105558;1257;60734;-68
2023/02/15 06:21:03;;;;;;;4.90;3.10;;;;;;;0.69;65.16;100758.77;105493;1260;72740;-72
2023/02/15 06:23:31;;;;;;;2.00;1.80;;;;;;;0.68;64.91;100755.90;105479;1259;68627;-68
2023/02/15 06:25:59;;;;;;;4.00;2.50;;;;;;;0.66;64.53;100756.95;105274;1260;72181;-70
2023/02/15 06:28:28;;;;;;;5.60;2.70;;;;;;;0.66;64.34;100756.29;105296;1260;60372;-70
2023/02/15 06:30:56;;;;;;;4.60;2.40;;;;;;;0.65;64.31;100754.60;105582;1258;60484;-71
2023/02/15 06:33:24;;;;;;;3.00;2.50;;;;;;;0.64;64.13;100754.48;105669;1256;73599;-70
2023/02/15 06:35:52;;;;;;;4.70;3.30;;;;;;;0.64;64.17;100755.02;105624;1262;67907;-70
2023/02/15 06:38:21;;;;;;;4.60;3.10;;;;;;;0.63;63.87;100759.08;105618;1256;73936;-69
2023/02/15 06:40:49;;;;;;;3.50;2.10;;;;;;;0.62;63.96;100760.71;105256;1257;60480;-70
2023/02/15 06:43:17;;;;;;;3.50;2.20;;;;;;;0.63;63.77;100757.42;105601;1257;60447;-72
2023/02/15 06:45:45;;;;;;;4.30;2.70;;;;;;;0.60;63.55;100752.95;105619;1256;72397;-73
2023/02/15 06:48:14;;;;;;;2.30;2.00;;;;;;;0.59;63.69;100747.28;105809;1257;69327;-73
2023/02/15 06:50:42;;;;;;;2.30;2.20;;;;;;;0.60;63.60;100747.33;105501;1256;72785;-72
2023/02/15 06:53:10;;;;;;;4.90;3.20;;;;;;;0.62;63.46;100750.18;105636;1262;60431;-70
2023/02/15 06:55:39;;;;;;;5.30;2.80;;;;;;;0.62;63.25;100748.04;105438;1257;60610;-72
2023/02/15 06:58:07;;;;;;;3.10;2.50;;;;;;;0.62;63.18;100753.09;105742;1260;74029;-70
2023/02/15 07:00:36;;;;;;;3.80;2.10;;;;;;;0.63;63.25;100753.71;105509;1259;68782;-72
2023/02/15 07:03:04;;;;;;;2.70;2.30;;;;;;;0.65;63.39;100747.54;105618;1256;71330;-70
2023/02/15 07:05:34;;;;;;;2.70;2.40;;;;;;;0.67;63.27;100754.41;105483;1263;61412;-71
2023/02/15 07:08:02;;;;;;;3.80;2.20;;;;;;;0.69;62.97;100762.61;105517;1263;60812;-70
2023/02/15 07:10:31;;;;;;;3.30;2.30;;;;;;;0.69;62.81;100758.45;105590;1256;73487;-70
2023/02/15 07:13:01;;;;;;;6.60;3.30;;;;;;;0.65;62.66;100759.86;105547;1260;67708;-71
2023/02/15 07:15:32;;;;;;;2.20;2.00;;;;;;;0.64;63.00;100742.15;105580;1256;73041;-70
2023/02/15 07:18:00;;;;;;;1.80;1.60;;;;;;;0.65;63.19;100747.29;105760;1257;60393;-70
2023/02/15 07:20:29;;;;;;;7.00;2.50;;;;;;;0.63;63.07;100743.88;105760;1262;61956;-71
2023/02/15 07:22:57;;;;;;;2.20;1.90;;;;;;;0.60;63.61;100741.40;105499;1264;73431;-71
2023/02/15 07:25:25;;;;;;;2.70;1.80;;;;;;;0.59;63.69;100738.98;105611;1256;67140;-70
2023/02/15 07:28:00;;;;;;;1.60;1.50;;;;;;;0.61;63.88;100741.77;105655;1256;73516;-70
2023/02/15 07:30:29;;;;;;;3.60;2.30;;;;;;;0.64;64.06;100734.00;105511;1256;60912;-70
2023/02/15 07:35:54;;;;;;;1.70;1.60;;;;;;;0.69;63.70;100740.70;109038;1256;75484;-70
2023/02/15 07:38:23;;;;;;;3.20;1.80;;;;;;;0.72;63.66;100741.02;109165;1256;66636;-74
2023/02/15 07:40:51;;;;;;;4.80;3.10;;;;;;;0.74;63.84;100737.77;109117;1256;73493;-70
2023/02/15 07:43:20;;;;;;;3.80;2.00;;;;;;;0.76;63.45;100733.52;108981;1256;60258;-70
2023/02/15 07:45:48;;;;;;;3.10;2.00;;;;;;;0.77;63.22;100728.58;108964;1259;61212;-70
2023/02/15 07:48:16;;;;;;;1.40;1.30;;;;;;;0.80;63.33;100744.55;109037;1256;72536;-72
2023/02/15 07:50:45;;;;;;;1.70;1.60;;;;;;;0.81;63.40;100748.23;108975;1256;67694;-72
2023/02/15 07:53:13;;;;;;;5.90;2.10;;;;;;;0.79;63.30;100749.05;109012;1256;71452;-71
2023/02/15 07:55:42;;;;;;;5.00;2.00;;;;;;;0.81;63.28;100753.42;109033;1256;58151;-70
2023/02/15 07:58:10;;;;;;;4.00;2.70;;;;;;;0.83;63.29;100760.80;109029;1256;61276;-71
2023/02/15 08:00:56;;;;;;;5.00;3.00;;;;;;;0.86;62.84;100760.26;108904;1258;72877;-71
2023/02/15 08:03:28;;;;;;;2.10;1.70;;;;;;;0.89;62.70;100764.38;108149;1259;1003055;-73
2023/02/15 08:05:59;;;;;;;6.50;2.70;;;;;;;0.90;62.58;100761.84;108896;1259;73877;-73
2023/02/15 08:08:31;;;;;;;3.80;2.10;;;;;;;0.93;62.70;100762.10;108994;1256;58498;-71
2023/02/15 08:13:53;;;;;;;3.90;2.00;;;;;;;1.04;62.51;100766.00;109058;1258;75340;-70
2023/02/15 08:16:23;;;;;;;2.40;2.00;;;;;;;1.10;62.33;100770.79;109122;1256;66105;-70
2023/02/15 08:18:52;;;;;;;2.60;2.40;;;;;;;1.14;61.85;100768.22;109108;1261;73030;-71
2023/02/15 08:21:20;;;;;;;3.30;1.80;;;;;;;1.18;61.86;100772.30;109184;1256;60897;-72
2023/02/15 08:23:52;;;;;;;4.30;3.00;;;;;;;1.15;61.88;100761.95;109067;1257;59510;-72
2023/02/15 08:26:21;;;;;;;2.30;2.10;;;;;;;1.18;61.62;100773.36;109178;1256;73212;-73
2023/02/15 08:28:50;;;;;;;1.70;1.60;;;;;;;1.20;61.63;100779.61;109082;1256;67703;-72
2023/02/15 08:31:18;;;;;;;3.30;2.00;;;;;;;1.22;61.66;100770.91;109116;1257;71420;-71
2023/02/15 08:33:47;;;;;;;2.30;2.00;;;;;;;1.21;61.20;100778.77;109109;1256;58958;-73
2023/02/15 08:36:20;;;;;;;2.50;2.30;;;;;;;1.21;61.00;100785.52;109139;1256;59069;-71
2023/02/15 08:38:48;;;;;;;2.80;2.20;;;;;;;1.24;61.23;100776.84;108995;1257;74882;-73
2023/02/15 08:41:23;;;;;;;3.10;2.00;;;;;;;1.31;61.27;100787.69;109224;1257;67814;-71
2023/02/15 08:43:56;;;;;;;3.80;2.40;;;;;;;1.35;60.64;100790.90;109138;1257;72694;-73
2023/02/15 08:46:26;;;;;;;3.10;2.10;;;;;;;1.36;60.57;100787.79;109117;1257;58314;-72
2023/02/15 08:48:54;;;;;;;3.30;3.00;;;;;;;1.39;60.50;100787.21;109131;1257;61301;-72
2023/02/15 08:51:24;;;;;;;3.10;2.20;;;;;;;1.38;60.72;100786.04;109190;1256;74708;-72
2023/02/15 08:53:53;;;;;;;3.10;2.10;;;;;;;1.38;60.46;100790.09;109064;1256;67964;-74
2023/02/15 08:56:24;;;;;;;5.50;2.20;;;;;;;1.38;60.70;100787.66;109130;1256;71566;-71
2023/02/15 08:58:54;;;;;;;3.50;2.30;;;;;;;1.41;60.97;100784.31;108998;1256;58864;-73
2023/02/15 09:01:27;;;;;;;2.70;2.00;;;;;;;1.45;60.64;100782.77;109165;1257;60133;-74
2023/02/15 09:03:58;;;;;;;6.00;2.70;;;;;;;1.47;60.27;100772.48;109139;1256;74415;-70
2023/02/15 09:06:27;;;;;;;3.10;2.40;;;;;;;1.49;59.96;100773.00;109150;1256;67188;-71
2023/02/15 09:08:56;;;;;;;4.20;2.80;;;;;;;1.52;60.14;100777.61;109048;1256;70805;-73
2023/02/15 09:11:29;;;;;;;2.90;1.90;;;;;;;1.56;60.02;100777.34;109206;1256;58112;-70
2023/02/15 09:14:05;;;;;;;1.90;1.80;;;;;;;1.61;59.62;100788.13;108287;1258;1002952;-70
2023/02/15 09:16:37;;;;;;;4.30;2.70;;;;;;;1.62;59.73;100778.81;109003;1258;74726;-71
2023/02/15 09:19:05;;;;;;;7.40;2.70;;;;;;;1.62;59.96;100784.11;109039;1258;66355;-72
2023/02/15 09:21:36;;;;;;;2.30;2.10;;;;;;;1.63;60.06;100785.55;109070;1258;71919;-70
2023/02/15 09:24:06;;;;;;;2.90;2.20;;;;;;;1.64;59.32;100785.30;109057;1258;58529;-73
2023/02/15 09:26:40;;;;;;;3.30;2.10;;;;;;;1.65;59.30;100781.33;109023;1259;61364;-71
2023/02/15 09:29:09;;;;;;;3.30;1.70;;;;;;;1.64;59.05;100768.98;109007;1260;72919;-70
2023/02/15 09:31:44;;;;;;;2.60;2.40;;;;;;;1.65;58.86;100780.23;108977;1259;67119;-72
2023/02/15 09:34:13;;;;;;;2.20;2.00;;;;;;;1.64;59.01;100766.88;109034;1258;73886;-73
2023/02/15 09:36:41;;;;;;;5.20;2.60;;;;;;;1.63;58.96;100774.80;108985;1258;59752;-74
2023/02/15 09:39:18;;;;;;;2.30;1.90;;;;;;;1.68;58.91;100772.98;109081;1259;59584;-71
2023/02/15 09:41:53;;;;;;;2.50;2.30;;;;;;;1.76;58.79;100777.97;108938;1259;74122;-71
2023/02/15 09:44:49;;;;;;;6.70;2.90;;;;;;;1.83;58.86;100780.80;109080;1257;67409;-71
2023/02/15 09:47:36;;;;;;;2.80;2.50;;;;;;;1.88;58.34;100773.42;109067;1259;72912;-71
2023/02/15 09:50:27;;;;;;;3.70;2.20;;;;;;;1.92;57.82;100776.05;109075;1258;59431;-71
2023/02/15 09:53:13;;;;;;;2.60;2.20;;;;;;;1.92;57.71;100773.77;109085;1259;60628;-71
2023/02/15 09:56:02;;;;;;;2.50;1.80;;;;;;;1.91;58.80;100767.20;109055;1259;72924;-69
2023/02/15 09:58:48;;;;;;;3.70;2.30;;;;;;;1.86;58.18;100767.33;109100;1259;68846;-71
2023/02/15 10:01:25;;;;;;;8.70;2.80;;;;;;;1.84;58.89;100766.93;109043;1258;70624;-78
2023/02/15 10:04:26;;;;;;;2.30;2.00;;;;;;;1.89;59.46;100766.64;109070;1258;58625;-70
2023/02/15 10:07:28;;;;;;;3.70;2.20;;;;;;;2.02;59.60;100772.31;109072;1258;58525;-70
2023/02/15 10:10:15;;;;;;;2.00;1.80;;;;;;;2.12;58.97;100772.56;109069;1258;74774;-70
2023/02/15 10:13:03;;;;;;;3.10;2.40;;;;;;;2.16;58.09;100762.55;109090;1259;67048;-72
2023/02/15 10:15:51;;;;;;;3.50;2.70;;;;;;;2.20;57.12;100759.16;109043;1258;72437;-72
2023/02/15 10:18:47;;;;;;;4.40;1.90;;;;;;;2.25;58.18;100766.77;109023;1259;60838;-69
2023/02/15 10:21:46;;;;;;;3.80;2.60;;;;;;;2.29;58.04;100754.45;109066;1259;59400;-70
2023/02/15 10:24:23;;;;;;;2.90;2.70;;;;;;;2.35;58.49;100761.41;109049;1258;71436;-72
2023/02/15 10:26:52;;;;;;;2.30;2.00;;;;;;;2.40;58.56;100769.31;109075;1259;68163;-70
2023/02/15 10:29:36;;;;;;;2.20;2.10;;;;;;;2.42;58.47;100765.89;109051;1258;71787;-68
2023/02/15 10:32:29;;;;;;;5.60;2.50;;;;;;;2.42;57.91;100766.20;108924;1259;58734;-69
2023/02/15 10:35:16;;;;;;;3.10;1.80;;;;;;;2.41;57.78;100779.64;108919;1258;58308;-71
2023/02/15 10:37:47;;;;;;;1.80;1.50;;;;;;;2.36;57.67;100769.04;109013;1259;74012;-69
2023/02/15 10:40:20;;;;;;;2.50;1.90;;;;;;;2.33;57.76;100764.46;109076;1258;66706;-69
2023/02/15 10:43:11;;;;;;;3.80;2.20;;;;;;;2.29;57.43;100762.98;109060;1259;71797;-69
2023/02/15 10:45:57;;;;;;;2.60;2.10;;;;;;;2.31;57.57;100755.85;108996;1258;58226;-72
2023/02/15 10:48:52;;;;;;;2.80;2.10;;;;;;;2.36;57.10;100758.65;109097;1258;58136;-71
2023/02/15 10:51:45;;;;;;;3.70;2.70;;;;;;;2.41;56.87;100760.32;108993;1258;72799;-70
2023/02/15 10:54:19;;;;;;;4.20;2.00;;;;;;;2.44;55.97;100760.85;108946;1260;67172;-72
2023/02/15 10:57:00;;;;;;;2.10;2.00;;;;;;;2.47;55.91;100755.96;108905;1260;72216;-70
2023/02/15 10:59:52;;;;;;;3.60;2.30;;;;;;;2.51;55.19;100752.78;108981;1260;59567;-68
2023/02/15 11:02:46;;;;;;;3.30;2.50;;;;;;;2.53;54.56;100753.52;108872;1260;60087;-72
2023/02/15 11:05:24;;;;;;;;;;;;;;;2.58;54.78;100760.86;108995;1260;73956;-74
2023/02/15 11:07:53;;;;;;;8.00;1.80;;;;;;;2.62;54.30;100757.94;108172;1260;1002117;-70
2023/02/15 11:10:34;;;;;;;4.40;2.10;;;;;;;2.65;54.09;100768.06;108980;1260;71349;-70
2023/02/15 11:13:09;;;;;;;8.60;1.70;;;;;;;2.70;53.76;100768.81;108833;1261;58150;-68
2023/02/15 11:16:05;;;;;;;3.50;2.40;;;;;;;2.74;53.57;100766.14;108773;1263;59428;-69
2023/02/15 11:18:39;;;;;;;3.20;2.10;;;;;;;2.78;52.28;100761.96;108883;1261;73084;-70
2023/02/15 11:21:08;;;;;;;3.40;2.10;;;;;;;2.81;52.49;100749.45;108773;1263;66197;-73
2023/02/15 11:23:40;;;;;;;3.70;2.30;;;;;;;2.85;52.18;100760.81;108819;1264;72118;-67
2023/02/15 11:26:19;;;;;;;3.80;2.10;;;;;;;2.95;51.92;100754.05;108923;1260;60642;-72
2023/02/15 11:28:51;;;;;;;5.40;3.20;;;;;;;3.04;51.21;100767.45;108901;1259;60437;-74
2023/02/15 11:31:21;;;;;;;3.70;1.60;;;;;;;3.11;50.85;100757.72;108887;1260;73109;-71
2023/02/15 11:34:00;;;;;;;2.50;1.70;;;;;;;3.14;50.40;100758.39;108927;1259;67974;-73
2023/02/15 11:36:32;;;;;;;1.70;1.20;;;;;;;3.16;50.55;100763.80;108905;1259;72840;-74
2023/02/15 11:39:21;;;;;;;3.90;1.60;;;;;;;3.23;50.20;100755.38;108853;1259;59793;-79
2023/02/15 11:41:53;;;;;;;2.90;2.50;;;;;;;3.30;49.93;100755.34;108864;1264;60563;-77
2023/02/15 11:44:35;;;;;;;5.90;1.90;;;;;;;3.28;48.97;100750.69;108895;1259;74362;-80
2023/02/15 11:47:10;;;;;;;3.20;1.70;;;;;;;3.36;49.00;100764.09;108979;1260;67034;-72
2023/02/15 11:49:43;;;;;;;2.80;1.50;;;;;;;3.42;47.22;100767.51;108899;1260;72137;-76
2023/02/15 11:52:13;;;;;;;2.40;1.90;;;;;;;3.43;47.17;100754.02;108895;1260;59936;-74
2023/02/15 11:54:43;;;;;;;1.40;1.30;;;;;;;3.47;47.21;100748.20;108992;1260;59043;-73
2023/02/15 11:57:20;;;;;;;2.20;1.60;;;;;;;3.54;46.77;100750.73;108960;1264;72572;-73
2023/02/15 12:00:03;;;;;;;2.50;1.90;;;;;;;3.65;46.70;100737.55;109009;1260;67992;-72
2023/02/15 12:02:35;;;;;;;3.80;2.70;;;;;;;3.76;45.80;100737.12;108913;1263;70295;-71
2023/02/15 12:05:09;;;;;;;2.90;1.70;;;;;;;3.76;43.93;100744.20;108953;1259;58546;-72
2023/02/15 12:07:45;;;;;;;2.10;1.70;;;;;;;3.66;43.28;100735.65;108916;1260;61239;-72
2023/02/15 12:10:22;;;;;;;1.60;1.50;;;;;;;3.64;43.31;100730.45;108942;1261;73062;-72
2023/02/15 12:13:11;;;;;;;3.20;2.10;;;;;;;3.66;43.43;100727.99;108860;1261;67640;-73
2023/02/15 12:15:41;;;;;;;1.90;1.70;;;;;;;3.75;43.43;100744.71;108891;1261;71809;-71
2023/02/15 12:18:38;;;;;;;1.70;1.60;;;;;;;3.82;43.56;100740.86;108932;1261;58685;-72